Time;durP1;ratioP1;P1;durP2;ratioP2;P2;SDS_P1;SDS_P2;PMS_P1;PMS_P2;Temp;Humidity;BMP_temperature;BMP_pressure;BME280_temperature;BME280_humidity;BME280_pressure;Samples;Min_cycle;Max_cycle;Signal;HPM_P1;HPM_P2
2021/05/20 00:01:41;;;;;;;17.40;9.63;;;8.70;99.90;;;;;;5086440;28;20031;-53
2021/05/20 00:04:07;;;;;;;18.67;9.63;;;8.70;99.90;;;;;;5085101;28;20058;-52
2021/05/20 00:06:33;;;;;;;19.73;9.57;;;8.70;99.90;;;;;;5084630;28;20074;-54
2021/05/20 00:08:58;;;;;;;16.52;9.40;;;8.70;99.90;;;;;;5083459;28;20025;-53
2021/05/20 00:11:24;;;;;;;18.48;10.32;;;8.60;99.90;;;;;;5085574;28;20146;-52
2021/05/20 00:13:50;;;;;;;16.88;10.23;;;8.60;99.90;;;;;;5079381;28;20032;-57
2021/05/20 00:16:15;;;;;;;19.65;10.50;;;8.60;99.90;;;;;;5086700;28;20359;-52
2021/05/20 00:18:41;;;;;;;18.85;10.75;;;8.60;99.90;;;;;;5079635;28;20103;-53
2021/05/20 00:21:06;;;;;;;24.48;10.13;;;8.60;99.90;;;;;;5079669;28;20036;-52
2021/05/20 00:23:32;;;;;;;19.02;9.35;;;8.60;99.90;;;;;;5083710;28;20060;-55
2021/05/20 00:28:42;;;;;;;25.27;10.85;;;8.50;99.90;;;;;;5077270;28;20044;-57
2021/05/20 00:31:08;;;;;;;23.92;10.25;;;8.50;99.90;;;;;;5080179;28;20489;-58
2021/05/20 00:33:34;;;;;;;21.55;10.93;;;8.50;99.90;;;;;;5081138;28;20036;-57
2021/05/20 00:36:00;;;;;;;26.35;11.98;;;8.40;99.90;;;;;;5077924;28;20028;-56
2021/05/20 00:38:26;;;;;;;19.20;10.77;;;8.50;99.90;;;;;;5079271;28;20047;-55
2021/05/20 00:41:00;;;;;;;25.13;11.00;;;8.50;99.90;;;;;;5077605;28;20041;-57
2021/05/20 00:43:27;;;;;;;28.40;12.07;;;8.40;99.90;;;;;;5059793;28;20039;-58
2021/05/20 00:45:52;;;;;;;21.40;11.60;;;8.40;99.90;;;;;;5045402;28;20647;-57
2021/05/20 00:48:18;;;;;;;26.67;11.82;;;8.40;99.90;;;;;;5070673;28;20038;-58
2021/05/20 00:50:43;;;;;;;22.00;12.73;;;8.40;99.90;;;;;;5074068;28;20104;-57
2021/05/20 00:53:11;;;;;;;24.30;12.68;;;8.50;99.90;;;;;;5081133;28;20427;-58
2021/05/20 00:55:37;;;;;;;24.27;12.15;;;8.50;99.90;;;;;;5058861;28;20048;-57
2021/05/20 00:58:07;;;;;;;25.05;13.20;;;8.50;99.90;;;;;;5080234;28;20033;-60
2021/05/20 01:00:33;;;;;;;29.30;13.82;;;8.50;99.90;;;;;;5085067;28;20031;-57
2021/05/20 01:02:59;;;;;;;26.92;13.18;;;8.50;99.90;;;;;;5082390;28;20043;-57
2021/05/20 01:05:24;;;;;;;30.60;14.07;;;8.50;99.90;;;;;;5079290;28;20511;-58
2021/05/20 01:07:50;;;;;;;25.30;12.65;;;8.60;99.90;;;;;;5085739;28;20078;-57
2021/05/20 01:10:16;;;;;;;23.23;12.25;;;8.60;99.90;;;;;;5088765;28;20077;-58
2021/05/20 01:12:41;;;;;;;23.92;13.55;;;8.60;99.90;;;;;;5085557;28;20390;-58
2021/05/20 01:15:21;;;;;;;23.00;13.68;;;8.70;99.90;;;;;;5089226;28;20020;-57
2021/05/20 01:17:48;;;;;;;27.42;15.05;;;8.80;99.90;;;;;;5084889;28;20024;-58
2021/05/20 01:20:19;;;;;;;31.92;14.95;;;8.80;99.90;;;;;;5068057;28;20036;-57
2021/05/20 01:22:45;;;;;;;28.77;14.60;;;8.90;99.90;;;;;;5085208;28;20394;-56
2021/05/20 01:25:12;;;;;;;26.27;15.07;;;8.90;99.90;;;;;;5067008;28;20020;-58
2021/05/20 01:27:40;;;;;;;26.20;14.30;;;9.00;99.90;;;;;;5084403;28;20483;-58
2021/05/20 01:30:07;;;;;;;30.50;16.17;;;9.00;99.90;;;;;;5081399;28;20375;-58
2021/05/20 01:32:33;;;;;;;34.40;19.02;;;9.10;99.90;;;;;;5068738;28;20055;-58
2021/05/20 01:34:59;;;;;;;38.55;17.73;;;9.20;99.90;;;;;;5085229;28;20091;-58
2021/05/20 01:37:24;;;;;;;31.95;17.65;;;9.30;99.90;;;;;;5078736;28;20082;-58
2021/05/20 01:39:50;;;;;;;31.67;17.10;;;9.40;99.90;;;;;;5080080;28;20037;-57
2021/05/20 01:42:15;;;;;;;30.17;16.88;;;9.40;99.90;;;;;;5074943;28;20060;-57
2021/05/20 01:44:41;;;;;;;33.28;17.52;;;9.50;99.90;;;;;;5083290;28;20047;-56
2021/05/20 01:47:06;;;;;;;34.22;17.63;;;9.50;99.90;;;;;;5083115;28;20085;-56
2021/05/20 01:49:32;;;;;;;32.95;18.75;;;9.50;99.90;;;;;;5085104;28;20543;-56
2021/05/20 01:51:58;;;;;;;37.15;19.15;;;9.60;99.90;;;;;;5076930;28;20826;-58
2021/05/20 01:54:23;;;;;;;33.63;19.02;;;9.70;99.90;;;;;;5083258;28;20024;-58
2021/05/20 01:56:49;;;;;;;35.80;18.58;;;9.70;99.90;;;;;;5078529;28;20036;-58
2021/05/20 01:59:15;;;;;;;30.42;17.10;;;9.70;99.90;;;;;;5065295;28;20028;-55
2021/05/20 02:01:41;;;;;;;33.55;18.55;;;9.80;99.90;;;;;;5084630;28;20029;-57
2021/05/20 02:04:07;;;;;;;30.45;17.17;;;9.80;99.90;;;;;;5080889;28;20040;-57
2021/05/20 02:06:32;;;;;;;30.25;17.83;;;9.80;99.90;;;;;;5079465;28;20041;-57
2021/05/20 02:08:58;;;;;;;28.00;16.35;;;9.80;99.90;;;;;;5086196;28;20489;-58
2021/05/20 02:11:23;;;;;;;28.02;17.05;;;9.90;99.90;;;;;;5083650;28;20109;-57
2021/05/20 02:13:49;;;;;;;32.08;14.98;;;9.90;99.90;;;;;;5082949;28;20039;-57
2021/05/20 02:16:15;;;;;;;21.80;14.80;;;9.90;99.90;;;;;;5084294;28;20020;-55
2021/05/20 02:18:42;;;;;;;28.27;16.70;;;9.90;99.90;;;;;;5083758;28;20033;-58
2021/05/20 02:21:08;;;;;;;32.35;17.80;;;9.90;99.90;;;;;;5080722;28;20078;-58
2021/05/20 02:23:33;;;;;;;29.70;16.00;;;9.80;99.90;;;;;;5086599;28;20028;-58
2021/05/20 02:25:59;;;;;;;26.25;16.13;;;9.70;99.90;;;;;;5083191;28;20032;-56
2021/05/20 02:28:25;;;;;;;29.00;17.20;;;9.70;99.90;;;;;;5083393;28;20028;-55
2021/05/20 02:30:50;;;;;;;29.17;17.58;;;9.70;99.90;;;;;;5081100;28;20020;-58
2021/05/20 02:33:16;;;;;;;25.13;16.98;;;9.70;99.90;;;;;;5082592;28;20031;-57
2021/05/20 02:35:42;;;;;;;26.58;18.10;;;9.70;99.90;;;;;;5080791;28;20028;-56
2021/05/20 02:38:07;;;;;;;26.85;17.17;;;9.70;99.90;;;;;;5082957;28;20073;-57
2021/05/20 02:40:34;;;;;;;28.55;17.75;;;9.60;99.90;;;;;;5078518;28;20036;-57
2021/05/20 02:43:01;;;;;;;27.08;17.17;;;9.70;99.90;;;;;;5081562;28;20031;-58
2021/05/20 02:45:27;;;;;;;25.98;16.85;;;9.70;99.90;;;;;;5089367;28;20032;-55
2021/05/20 02:47:53;;;;;;;28.50;17.08;;;9.70;99.90;;;;;;5083302;28;20155;-57
2021/05/20 02:50:20;;;;;;;29.52;17.67;;;9.80;99.90;;;;;;5082770;28;20492;-57
2021/05/20 02:52:46;;;;;;;25.60;16.55;;;9.80;99.90;;;;;;5085537;28;20094;-55
2021/05/20 02:55:13;;;;;;;34.22;19.50;;;9.80;99.90;;;;;;5087106;28;20462;-56
2021/05/20 02:57:42;;;;;;;31.90;19.10;;;9.90;99.90;;;;;;5084567;28;20149;-56
2021/05/20 03:00:10;;;;;;;37.53;20.33;;;9.90;99.90;;;;;;5087258;28;20062;-55
2021/05/20 03:02:35;;;;;;;30.10;19.60;;;9.90;99.90;;;;;;5084075;28;20397;-56
2021/05/20 03:05:01;;;;;;;33.92;20.15;;;9.80;99.90;;;;;;5087988;28;20024;-58
2021/05/20 03:07:27;;;;;;;37.15;21.52;;;9.90;99.90;;;;;;5081548;28;20487;-58
2021/05/20 03:09:52;;;;;;;33.17;20.35;;;9.90;99.90;;;;;;5084625;28;20028;-54
2021/05/20 03:12:18;;;;;;;36.65;20.25;;;9.90;99.90;;;;;;5085017;28;20016;-57
2021/05/20 03:14:43;;;;;;;36.30;21.13;;;9.90;99.90;;;;;;5081484;28;20173;-57
2021/05/20 03:17:12;;;;;;;37.17;21.77;;;9.90;99.90;;;;;;5083227;28;20371;-55
2021/05/20 03:19:41;;;;;;;35.30;21.30;;;9.90;99.90;;;;;;5085147;28;20656;-57
2021/05/20 03:22:07;;;;;;;37.17;22.63;;;9.90;99.90;;;;;;5078370;28;20045;-55
2021/05/20 03:24:34;;;;;;;35.20;22.38;;;10.00;99.90;;;;;;5087899;28;20390;-55
2021/05/20 03:27:00;;;;;;;41.95;23.60;;;10.00;99.90;;;;;;5080959;28;20041;-55
2021/05/20 03:29:25;;;;;;;40.42;23.98;;;10.00;99.90;;;;;;5086249;28;20036;-56
2021/05/20 03:31:51;;;;;;;40.45;23.60;;;10.00;99.90;;;;;;5081459;28;20016;-57
2021/05/20 03:34:17;;;;;;;41.25;23.63;;;10.00;99.90;;;;;;5085427;28;20672;-57
2021/05/20 03:36:42;;;;;;;45.47;26.92;;;10.00;99.90;;;;;;5085061;28;20082;-55
2021/05/20 03:39:08;;;;;;;44.97;25.17;;;10.00;99.90;;;;;;5075519;28;20509;-56
2021/05/20 03:41:33;;;;;;;42.47;25.60;;;10.00;99.90;;;;;;5083277;28;20508;-54
2021/05/20 03:43:59;;;;;;;41.15;25.48;;;10.10;99.90;;;;;;5083903;28;20031;-57
2021/05/20 03:46:24;;;;;;;42.85;25.48;;;10.10;99.90;;;;;;5087149;28;20028;-56
2021/05/20 03:48:50;;;;;;;42.33;25.27;;;10.10;99.90;;;;;;5079602;28;20032;-53
2021/05/20 03:51:15;;;;;;;48.53;28.25;;;10.00;99.90;;;;;;5081530;28;20036;-57
2021/05/20 03:53:41;;;;;;;46.80;28.42;;;10.00;99.90;;;;;;5080717;28;20032;-57
2021/05/20 03:56:06;;;;;;;45.92;27.95;;;9.90;99.90;;;;;;5084022;28;20031;-57
2021/05/20 03:58:32;;;;;;;46.10;27.80;;;9.90;99.90;;;;;;5077241;28;20406;-56
2021/05/20 04:00:58;;;;;;;47.05;28.45;;;9.90;99.90;;;;;;5082800;28;20016;-55
2021/05/20 04:03:27;;;;;;;52.05;30.35;;;9.90;99.90;;;;;;5083532;28;20027;-56
2021/05/20 04:05:58;;;;;;;45.72;27.73;;;9.90;99.90;;;;;;5085023;28;20060;-56
2021/05/20 04:08:23;;;;;;;52.40;30.60;;;9.90;99.90;;;;;;5079260;28;20585;-57
2021/05/20 04:10:51;;;;;;;50.47;29.38;;;9.90;99.90;;;;;;5083725;28;20108;-57
2021/05/20 04:13:33;;;;;;;50.78;28.98;;;9.90;99.90;;;;;;5075215;28;20075;-55
2021/05/20 04:15:59;;;;;;;50.83;29.50;;;9.90;99.90;;;;;;5083941;28;20110;-54
2021/05/20 04:18:25;;;;;;;55.92;31.73;;;9.90;99.90;;;;;;5076472;28;20044;-56
2021/05/20 04:20:52;;;;;;;56.17;30.58;;;10.00;99.90;;;;;;5080429;28;20024;-55
2021/05/20 04:23:17;;;;;;;55.80;32.22;;;9.90;99.90;;;;;;5073647;28;20107;-53
2021/05/20 04:25:43;;;;;;;56.33;32.22;;;10.00;99.90;;;;;;5084676;28;20106;-55
2021/05/20 04:28:09;;;;;;;62.03;34.47;;;9.90;99.90;;;;;;5080225;28;20543;-54
2021/05/20 04:30:35;;;;;;;55.55;31.77;;;10.00;99.90;;;;;;5085587;28;20024;-57
2021/05/20 04:33:01;;;;;;;63.85;35.28;;;10.00;99.90;;;;;;5080152;28;20027;-55
2021/05/20 04:35:27;;;;;;;65.75;34.55;;;10.00;99.90;;;;;;5078769;28;20103;-57
2021/05/20 04:37:52;;;;;;;68.00;37.88;;;10.00;99.90;;;;;;5083199;28;20095;-57
2021/05/20 04:40:18;;;;;;;65.90;36.65;;;10.00;99.90;;;;;;5084885;28;20046;-54
2021/05/20 04:42:44;;;;;;;65.90;36.97;;;10.00;99.90;;;;;;5073449;28;20027;-54
2021/05/20 04:45:10;;;;;;;67.57;36.80;;;10.10;99.90;;;;;;5085872;28;20526;-56
2021/05/20 04:47:36;;;;;;;77.20;39.70;;;10.00;99.90;;;;;;5082178;28;20032;-57
2021/05/20 04:50:01;;;;;;;71.95;39.35;;;10.00;99.90;;;;;;5084015;28;20028;-57
2021/05/20 04:52:27;;;;;;;71.78;39.35;;;10.10;99.90;;;;;;5085080;28;20031;-57
2021/05/20 04:54:52;;;;;;;72.50;40.03;;;10.10;99.90;;;;;;5082189;28;20103;-57
2021/05/20 04:57:18;;;;;;;77.57;41.83;;;10.10;99.90;;;;;;5082858;28;20189;-57
2021/05/20 04:59:43;;;;;;;79.25;41.30;;;10.10;99.90;;;;;;5080532;28;20036;-57
2021/05/20 05:02:09;;;;;;;75.20;39.67;;;10.00;99.90;;;;;;5082702;28;20101;-56
2021/05/20 05:04:34;;;;;;;81.63;43.63;;;10.10;99.90;;;;;;5083517;28;20099;-55
2021/05/20 05:07:00;;;;;;;75.45;40.00;;;10.10;99.90;;;;;;5083230;28;20060;-55
2021/05/20 05:09:25;;;;;;;71.82;41.50;;;10.10;99.90;;;;;;5079670;28;20097;-56
2021/05/20 05:11:51;;;;;;;81.50;41.83;;;10.20;99.90;;;;;;5081854;28;20016;-56
2021/05/20 05:14:17;;;;;;;79.35;40.97;;;10.20;99.90;;;;;;5084312;28;20070;-56
2021/05/20 05:16:42;;;;;;;74.57;39.92;;;10.20;99.90;;;;;;5085586;28;20689;-55
2021/05/20 05:19:08;;;;;;;77.60;40.42;;;10.30;99.90;;;;;;5077126;28;20035;-53
2021/05/20 05:21:33;;;;;;;78.43;42.00;;;10.30;99.90;;;;;;5088927;28;20103;-55
2021/05/20 05:23:59;;;;;;;75.75;41.22;;;10.40;99.90;;;;;;5075974;28;20461;-56
2021/05/20 05:26:25;;;;;;;86.90;42.95;;;10.50;99.90;;;;;;5078505;28;20445;-56
2021/05/20 05:28:50;;;;;;;77.50;43.47;;;10.50;99.90;;;;;;5092054;28;20111;-57
2021/05/20 05:31:21;;;;;;;78.72;44.28;;;10.40;99.90;;;;;;5088018;28;20371;-57
2021/05/20 05:33:46;;;;;;;80.07;43.40;;;10.40;99.90;;;;;;5080952;28;20453;-55
2021/05/20 05:36:12;;;;;;;87.68;47.03;;;10.50;99.90;;;;;;5081289;28;20060;-57
2021/05/20 05:38:38;;;;;;;82.28;44.63;;;10.50;99.90;;;;;;5067305;28;20482;-55
2021/05/20 05:41:04;;;;;;;83.57;44.97;;;10.60;99.90;;;;;;5088798;28;20063;-56
2021/05/20 05:43:29;;;;;;;77.78;44.80;;;10.70;99.90;;;;;;5085044;28;20089;-57
2021/05/20 05:45:55;;;;;;;95.85;48.30;;;10.70;99.90;;;;;;5083861;28;20024;-57
2021/05/20 05:48:20;;;;;;;83.55;44.78;;;10.70;99.90;;;;;;5080659;28;20032;-57
2021/05/20 05:50:48;;;;;;;86.90;48.70;;;10.80;99.90;;;;;;5088372;28;20474;-57
2021/05/20 05:53:14;;;;;;;84.60;46.28;;;10.80;99.90;;;;;;5076246;28;20480;-57
2021/05/20 05:55:39;;;;;;;90.28;46.45;;;10.90;99.90;;;;;;5085250;28;20120;-57
2021/05/20 05:58:05;;;;;;;85.22;46.53;;;11.00;99.90;;;;;;5080797;28;20434;-57
2021/05/20 06:00:30;;;;;;;82.82;45.85;;;11.10;99.90;;;;;;5079615;28;20072;-55
2021/05/20 06:02:57;;;;;;;85.10;45.85;;;11.10;99.90;;;;;;5088621;28;20138;-56
2021/05/20 06:05:22;;;;;;;77.70;43.00;;;11.20;99.90;;;;;;5084193;28;20036;-54
2021/05/20 06:07:48;;;;;;;79.05;45.05;;;11.30;99.90;;;;;;5075283;28;20367;-55
2021/05/20 06:10:14;;;;;;;82.32;43.22;;;11.20;99.90;;;;;;5084372;28;20573;-56
2021/05/20 06:12:39;;;;;;;73.50;40.92;;;11.10;99.90;;;;;;5085444;28;20134;-55
2021/05/20 06:15:06;;;;;;;78.95;43.55;;;11.20;99.90;;;;;;5086644;28;20067;-55
2021/05/20 06:17:32;;;;;;;77.38;41.58;;;11.30;99.90;;;;;;5084846;28;20048;-56
2021/05/20 06:19:57;;;;;;;71.30;40.85;;;11.30;99.90;;;;;;5085364;28;20059;-55
2021/05/20 06:22:23;;;;;;;70.53;42.05;;;11.40;99.90;;;;;;5080424;28;20427;-58
2021/05/20 06:24:49;;;;;;;76.18;41.13;;;11.40;99.90;;;;;;5085767;28;20559;-55
2021/05/20 06:27:15;;;;;;;73.55;40.88;;;11.40;99.90;;;;;;5088181;28;20042;-57
2021/05/20 06:29:41;;;;;;;79.18;43.88;;;11.50;99.90;;;;;;5084295;28;20032;-56
2021/05/20 06:32:06;;;;;;;73.75;42.92;;;11.50;99.90;;;;;;5088419;28;20111;-54
2021/05/20 06:34:32;;;;;;;70.75;40.05;;;11.60;99.90;;;;;;5087772;28;20024;-54
2021/05/20 06:37:02;;;;;;;72.45;42.20;;;11.60;99.90;;;;;;5083156;28;20028;-54
2021/05/20 06:39:28;;;;;;;81.55;40.35;;;11.70;99.90;;;;;;5085717;28;20414;-56
2021/05/20 06:41:55;;;;;;;73.00;40.63;;;11.70;99.90;;;;;;5068897;28;20118;-54
2021/05/20 06:44:21;;;;;;;74.93;42.72;;;11.70;99.90;;;;;;5085705;28;20075;-58
2021/05/20 06:46:47;;;;;;;72.22;41.10;;;11.70;99.90;;;;;;5050865;28;20028;-54
2021/05/20 06:49:12;;;;;;;73.30;39.70;;;11.70;99.90;;;;;;5062406;28;20142;-54
2021/05/20 06:51:38;;;;;;;67.18;39.13;;;11.70;99.90;;;;;;5087830;28;20509;-55
2021/05/20 06:54:04;;;;;;;67.75;39.63;;;11.60;99.90;;;;;;5082582;28;20105;-55
2021/05/20 06:56:30;;;;;;;69.40;40.72;;;11.70;99.90;;;;;;5082736;28;20024;-56
2021/05/20 07:01:45;;;;;;;64.28;35.13;;;11.70;99.90;;;;;;5086686;28;20675;-54
2021/05/20 07:04:11;;;;;;;62.80;35.60;;;11.60;99.90;;;;;;5085516;28;20043;-54
2021/05/20 07:06:37;;;;;;;65.97;35.30;;;11.50;99.90;;;;;;5082565;28;20119;-55
2021/05/20 07:09:04;;;;;;;59.17;34.30;;;11.60;99.90;;;;;;5089385;28;20510;-56
2021/05/20 07:11:31;;;;;;;61.78;35.10;;;11.60;99.90;;;;;;5087123;28;20031;-57
2021/05/20 07:13:56;;;;;;;68.90;35.13;;;11.70;99.90;;;;;;5088036;28;20054;-55
2021/05/20 07:16:22;;;;;;;50.63;31.33;;;11.80;99.90;;;;;;5086727;28;20020;-55
2021/05/20 07:18:47;;;;;;;52.83;32.78;;;11.80;99.90;;;;;;5087434;28;20027;-55
2021/05/20 07:21:13;;;;;;;45.30;27.88;;;11.90;99.90;;;;;;5088964;28;20039;-56
2021/05/20 07:23:39;;;;;;;52.72;31.35;;;11.90;99.90;;;;;;5088863;28;20024;-55
2021/05/20 07:26:04;;;;;;;53.47;28.98;;;11.80;99.90;;;;;;5085957;28;20021;-55
2021/05/20 07:28:31;;;;;;;53.22;30.35;;;11.90;99.90;;;;;;5088384;28;20045;-57
2021/05/20 07:30:57;;;;;;;46.58;27.33;;;11.90;99.90;;;;;;5083849;28;20046;-56
2021/05/20 07:33:23;;;;;;;53.42;28.88;;;12.00;99.90;;;;;;5082561;28;20020;-57
2021/05/20 07:35:49;;;;;;;51.10;28.08;;;12.10;99.90;;;;;;5082651;28;20020;-56
2021/05/20 07:38:15;;;;;;;48.33;27.95;;;12.20;99.90;;;;;;5063663;28;20035;-58
2021/05/20 07:40:40;;;;;;;42.28;26.02;;;12.30;99.90;;;;;;5079644;28;20047;-53
2021/05/20 07:43:06;;;;;;;48.58;28.52;;;12.50;99.90;;;;;;5086921;28;20028;-55
2021/05/20 07:45:31;;;;;;;45.20;26.42;;;12.50;99.90;;;;;;5076500;28;20032;-54
2021/05/20 07:47:57;;;;;;;43.85;25.20;;;12.50;99.90;;;;;;5087291;28;20073;-56
2021/05/20 07:50:23;;;;;;;39.95;24.67;;;12.40;99.90;;;;;;5082068;28;20020;-53
2021/05/20 07:55:16;;;;;;;50.13;27.70;;;12.50;99.90;;;;;;5087624;28;20055;-59
2021/05/20 07:57:42;;;;;;;45.33;26.98;;;12.50;99.90;;;;;;5092558;28;20028;-58
2021/05/20 08:00:12;;;;;;;43.05;25.55;;;12.70;99.90;;;;;;5094399;28;20115;-58
2021/05/20 08:05:08;;;;;;;45.38;24.80;;;12.90;99.90;;;;;;5086391;28;20107;-58
2021/05/20 08:07:47;;;;;;;36.45;23.48;;;12.80;99.90;;;;;;5090907;28;20050;-58
2021/05/20 08:12:42;;;;;;;33.97;21.83;;;12.70;99.90;;;;;;5089167;28;20028;-57
2021/05/20 08:15:08;;;;;;;38.60;23.65;;;12.90;99.90;;;;;;5089720;28;20038;-57
2021/05/20 08:17:34;;;;;;;42.72;26.90;;;13.00;99.90;;;;;;5084809;28;20486;-58
2021/05/20 08:19:59;;;;;;;40.67;25.25;;;13.00;99.90;;;;;;5086596;28;20043;-58
2021/05/20 08:22:25;;;;;;;40.72;24.90;;;13.10;99.90;;;;;;5081808;28;20032;-55
2021/05/20 08:24:51;;;;;;;41.53;24.67;;;13.10;99.90;;;;;;5089883;28;20110;-57
2021/05/20 08:27:16;;;;;;;41.65;23.52;;;13.10;99.90;;;;;;5082376;28;20028;-58
2021/05/20 08:29:42;;;;;;;34.38;21.92;;;13.10;99.90;;;;;;5088601;28;20032;-59
2021/05/20 08:32:08;;;;;;;41.53;22.58;;;13.30;99.90;;;;;;5083011;28;20053;-58
2021/05/20 08:34:33;;;;;;;36.33;23.27;;;13.30;99.90;;;;;;5087360;28;20028;-59
2021/05/20 08:37:01;;;;;;;43.85;23.55;;;13.40;99.90;;;;;;5089471;28;20020;-57
2021/05/20 08:39:27;;;;;;;41.35;23.23;;;13.50;99.90;;;;;;5088252;28;20037;-58
2021/05/20 08:41:54;;;;;;;34.92;22.60;;;13.50;99.90;;;;;;5088291;28;20024;-58
2021/05/20 08:44:23;;;;;;;33.97;21.50;;;13.60;99.90;;;;;;5090900;28;20051;-57
2021/05/20 08:46:49;;;;;;;31.25;20.60;;;13.80;99.90;;;;;;5084320;28;20406;-59
2021/05/20 08:49:15;;;;;;;36.58;21.58;;;14.00;99.90;;;;;;5065947;28;20032;-58
2021/05/20 08:51:45;;;;;;;39.97;20.88;;;13.80;99.90;;;;;;5084088;28;20032;-60
2021/05/20 08:54:12;;;;;;;31.00;20.30;;;14.00;99.90;;;;;;5085515;28;20032;-55
2021/05/20 08:56:38;;;;;;;31.58;19.63;;;14.00;99.90;;;;;;5085126;28;20025;-57
2021/05/20 08:59:04;;;;;;;37.80;21.55;;;13.80;99.90;;;;;;5081130;28;20367;-56
2021/05/20 09:01:33;;;;;;;32.95;21.42;;;13.70;99.90;;;;;;5088849;28;20169;-58
2021/05/20 09:03:59;;;;;;;35.20;20.83;;;13.50;99.90;;;;;;5091664;28;20508;-56
2021/05/20 09:06:43;;;;;;;37.72;22.65;;;13.50;99.90;;;;;;5091149;28;20032;-57
2021/05/20 09:09:22;;;;;;;36.08;20.77;;;13.40;99.90;;;;;;5088479;28;20398;-58
2021/05/20 09:11:53;;;;;;;33.78;21.45;;;13.60;99.90;;;;;;5080612;28;20036;-58
2021/05/20 09:14:30;;;;;;;33.85;21.52;;;13.80;99.90;;;;;;5081446;28;20506;-58
2021/05/20 09:17:08;;;;;;;38.38;20.58;;;13.90;99.90;;;;;;5087016;28;20028;-58
2021/05/20 09:19:34;;;;;;;32.10;19.23;;;14.30;99.90;;;;;;5090017;28;20031;-57
2021/05/20 09:22:04;;;;;;;29.85;17.55;;;14.60;99.90;;;;;;5090060;28;20032;-58
2021/05/20 09:24:59;;;;;;;28.38;17.42;;;15.00;99.90;;;;;;5086568;28;20036;-58
2021/05/20 09:27:35;;;;;;;26.08;16.48;;;15.00;99.90;;;;;;5073033;28;20032;-59
2021/05/20 09:30:21;;;;;;;25.10;17.23;;;15.00;99.90;;;;;;5088930;28;20435;-58
2021/05/20 09:33:07;;;;;;;26.25;16.13;;;15.00;99.90;;;;;;5089724;28;20055;-59
2021/05/20 09:35:36;;;;;;;26.70;15.80;;;14.90;99.90;;;;;;5092644;28;20024;-58
2021/05/20 09:38:10;;;;;;;29.42;15.60;;;15.10;99.90;;;;;;5089435;28;20024;-56
2021/05/20 09:40:51;;;;;;;25.33;14.63;;;15.40;99.90;;;;;;5092867;28;20020;-57
2021/05/20 09:43:24;;;;;;;28.13;16.48;;;15.80;99.90;;;;;;5085671;28;20403;-56
2021/05/20 09:45:54;;;;;;;25.08;16.70;;;15.80;99.90;;;;;;5091479;28;20028;-58
2021/05/20 09:48:21;;;;;;;26.83;14.95;;;15.90;99.90;;;;;;5091972;28;20032;-56
2021/05/20 09:50:49;;;;;;;29.88;14.52;;;16.00;99.90;;;;;;5092383;28;20020;-59
2021/05/20 09:53:23;;;;;;;21.92;14.70;;;15.70;99.90;;;;;;5092826;28;20039;-59
2021/05/20 09:55:56;;;;;;;27.70;16.65;;;16.00;99.90;;;;;;5088625;28;20020;-57
2021/05/20 09:58:27;;;;;;;23.15;15.25;;;16.10;99.90;;;;;;5090043;28;20044;-58
2021/05/20 10:00:57;;;;;;;23.70;14.27;;;16.10;99.90;;;;;;5087818;28;20028;-59
2021/05/20 10:03:24;;;;;;;22.40;14.35;;;16.50;99.90;;;;;;5092684;28;20078;-58
2021/05/20 10:05:52;;;;;;;19.98;12.52;;;16.50;99.90;;;;;;5087742;28;20063;-57
2021/05/20 10:08:20;;;;;;;17.08;11.05;;;16.90;99.90;;;;;;5092674;28;20063;-55
2021/05/20 10:10:51;;;;;;;20.48;10.13;;;17.00;99.90;;;;;;5090910;28;20026;-58
2021/05/20 10:13:22;;;;;;;20.05;10.35;;;17.20;99.90;;;;;;5088699;28;20502;-57
2021/05/20 10:15:48;;;;;;;18.23;9.05;;;17.50;99.90;;;;;;5091732;28;20024;-58
2021/05/20 10:18:19;;;;;;;13.27;8.35;;;17.80;99.90;;;;;;5086447;28;20085;-58
2021/05/20 10:20:48;;;;;;;13.52;7.97;;;17.80;99.90;;;;;;5084605;28;20028;-58
2021/05/20 10:23:16;;;;;;;14.23;8.50;;;17.70;99.90;;;;;;5089608;28;20020;-57
2021/05/20 10:25:43;;;;;;;19.67;10.43;;;17.60;99.90;;;;;;5084245;28;20036;-59
2021/05/20 10:28:11;;;;;;;23.33;11.80;;;16.90;99.90;;;;;;5090575;28;20036;-57
2021/05/20 10:30:40;;;;;;;18.30;10.73;;;16.50;99.90;;;;;;5083658;28;20389;-56
2021/05/20 10:33:06;;;;;;;15.70;9.88;;;16.20;99.90;;;;;;5092436;28;20053;-57
2021/05/20 10:35:58;;;;;;;19.80;11.30;;;16.00;99.90;;;;;;5088662;28;20032;-57
2021/05/20 10:38:30;;;;;;;19.40;10.85;;;16.00;99.90;;;;;;5082267;28;20041;-57
2021/05/20 10:41:08;;;;;;;21.58;10.48;;;16.40;99.90;;;;;;5080061;28;20527;-58
2021/05/20 10:43:34;;;;;;;21.98;11.75;;;16.90;99.90;;;;;;5082804;28;20039;-58
2021/05/20 10:46:01;;;;;;;28.23;11.85;;;17.00;99.90;;;;;;5087621;28;20024;-57
2021/05/20 10:48:28;;;;;;;27.55;11.20;;;17.40;99.90;;;;;;5085777;28;20387;-57
2021/05/20 10:50:59;;;;;;;15.23;9.93;;;17.80;99.90;;;;;;5086605;28;20016;-57
2021/05/20 10:53:50;;;;;;;15.65;10.23;;;18.20;99.90;;;;;;5087434;28;20502;-58
2021/05/20 10:56:15;;;;;;;16.00;9.32;;;18.70;99.90;;;;;;5088792;28;20127;-57
2021/05/20 10:58:44;;;;;;;10.50;6.93;;;18.40;99.90;;;;;;5091520;28;20031;-57
2021/05/20 11:01:21;;;;;;;30.17;8.10;;;18.10;99.90;;;;;;5086309;28;20024;-57
2021/05/20 11:03:55;;;;;;;19.73;7.32;;;17.50;99.90;;;;;;5088955;28;20030;-56
2021/05/20 11:06:23;;;;;;;11.07;6.35;;;17.10;99.90;;;;;;5082071;28;20356;-58
2021/05/20 11:08:48;;;;;;;9.70;5.43;;;17.20;99.90;;;;;;5084630;28;20138;-58
2021/05/20 11:11:30;;;;;;;12.77;6.50;;;17.30;99.90;;;;;;5081715;28;20056;-57
2021/05/20 11:13:57;;;;;;;13.82;6.13;;;17.30;99.90;;;;;;5088025;28;20049;-57
2021/05/20 11:16:32;;;;;;;9.27;5.53;;;17.20;99.90;;;;;;5088901;28;20028;-57
2021/05/20 11:19:19;;;;;;;16.17;7.82;;;17.00;99.90;;;;;;5082567;28;20062;-53
2021/05/20 11:21:57;;;;;;;10.38;6.20;;;16.90;99.90;;;;;;5081190;28;20118;-58
2021/05/20 11:24:26;;;;;;;8.07;5.68;;;16.90;99.90;;;;;;5086173;28;20104;-57
2021/05/20 11:26:53;;;;;;;8.90;5.63;;;17.00;99.90;;;;;;5090095;28;20028;-57
2021/05/20 11:29:22;;;;;;;6.65;4.90;;;16.90;99.90;;;;;;5090975;28;20233;-56
2021/05/20 11:31:50;;;;;;;11.13;4.72;;;17.00;99.90;;;;;;5085548;28;20034;-57
2021/05/20 11:36:45;;;;;;;7.45;4.97;;;17.20;99.90;;;;;;5088390;28;20107;-57
2021/05/20 11:39:14;;;;;;;87.10;10.80;;;17.40;99.90;;;;;;5085693;28;20377;-56
2021/05/20 11:41:42;;;;;;;7.47;4.20;;;17.90;99.90;;;;;;5085944;28;20020;-58
2021/05/20 11:44:16;;;;;;;525.15;49.17;;;18.50;99.90;;;;;;5089111;28;20024;-53
2021/05/20 11:47:06;;;;;;;22.98;6.13;;;19.00;99.90;;;;;;5089668;28;20058;-55
2021/05/20 11:49:33;;;;;;;7.15;4.40;;;19.30;99.90;;;;;;5073031;28;20028;-57
2021/05/20 11:52:03;;;;;;;9.18;5.15;;;19.20;99.90;;;;;;5083294;28;20028;-56
2021/05/20 11:54:37;;;;;;;8.75;5.47;;;19.40;99.90;;;;;;5082627;28;20032;-57
2021/05/20 11:57:06;;;;;;;8.65;5.32;;;19.10;99.90;;;;;;5087369;28;20028;-58
2021/05/20 11:59:38;;;;;;;10.75;4.57;;;18.70;99.90;;;;;;5086552;28;20031;-57
2021/05/20 12:02:05;;;;;;;9.57;5.35;;;18.00;99.90;;;;;;5085724;28;20029;-58
2021/05/20 12:04:32;;;;;;;12.45;3.83;;;17.80;99.90;;;;;;5083255;28;20035;-55
2021/05/20 12:06:58;;;;;;;5.53;2.42;;;17.60;99.90;;;;;;5089685;28;20020;-57
2021/05/20 12:09:24;;;;;;;4.32;1.88;;;17.70;99.90;;;;;;5085092;28;20592;-53
2021/05/20 12:11:50;;;;;;;4.13;2.40;;;18.20;99.90;;;;;;5083775;28;20100;-56
2021/05/20 12:14:26;;;;;;;6.10;2.10;;;19.10;99.90;;;;;;5085057;28;20020;-57
2021/05/20 12:17:13;;;;;;;3.63;2.22;;;19.70;99.90;;;;;;5084238;28;20094;-54
2021/05/20 12:19:51;;;;;;;4.90;2.40;;;19.50;99.90;;;;;;5081269;28;20032;-54
2021/05/20 12:22:26;;;;;;;7.32;2.33;;;19.40;99.90;;;;;;5083868;28;20028;-53
2021/05/20 12:25:07;;;;;;;3.45;2.40;;;19.10;99.90;;;;;;5083620;28;20111;-53
2021/05/20 12:27:35;;;;;;;3.33;1.70;;;18.80;99.90;;;;;;5079520;28;20459;-54
2021/05/20 12:30:02;;;;;;;7.55;2.13;;;18.90;99.90;;;;;;5082314;28;20111;-57
2021/05/20 12:32:35;;;;;;;8.43;2.33;;;18.70;99.90;;;;;;5083964;28;20158;-54
2021/05/20 12:35:21;;;;;;;4.68;1.80;;;18.90;99.90;;;;;;5089580;28;20012;-55
2021/05/20 12:37:52;;;;;;;5.72;3.05;;;18.60;99.90;;;;;;5091190;28;20027;-56
2021/05/20 12:40:29;;;;;;;4.30;2.70;;;18.60;99.90;;;;;;5088140;28;20023;-56
2021/05/20 12:43:18;;;;;;;4.55;2.35;;;18.30;99.90;;;;;;5084748;28;20024;-57
2021/05/20 12:45:57;;;;;;;5.05;2.38;;;18.30;99.90;;;;;;5084271;28;20509;-55
2021/05/20 12:48:35;;;;;;;4.38;2.10;;;18.40;99.90;;;;;;5087218;28;20399;-58
2021/05/20 12:51:05;;;;;;;3.60;1.85;;;18.30;99.90;;;;;;5088374;28;20114;-56
2021/05/20 12:53:40;;;;;;;4.18;2.20;;;18.70;99.90;;;;;;5090590;28;20145;-55